Time;durP1;ratioP1;P1;durP2;ratioP2;P2;SDS_P1;SDS_P2;PMS_P1;PMS_P2;Temp;Humidity;BMP_temperature;BMP_pressure;BME280_temperature;BME280_humidity;BME280_pressure;Samples;Min_cycle;Max_cycle;Signal;HPM_P1;HPM_P2
2023/01/24 00:02:12;;;;;;;0.30;0.20;;;;;;;16.36;23.10;101817.75;5032933;28;20025;-58
2023/01/24 00:04:38;;;;;;;1.65;1.10;;;;;;;16.49;22.84;101811.44;5033028;28;20037;-59
2023/01/24 00:07:04;;;;;;;0.38;0.10;;;;;;;16.42;22.95;101818.75;5032973;28;20025;-59
2023/01/24 00:09:31;;;;;;;1.75;0.10;;;;;;;16.43;22.42;101819.56;5032806;28;20024;-58
2023/01/24 00:11:57;;;;;;;2.75;0.80;;;;;;;16.72;22.56;101818.13;5033116;28;20022;-58
2023/01/24 00:14:23;;;;;;;0.32;0.17;;;;;;;16.43;22.31;101822.28;5032695;28;20028;-59
2023/01/24 00:16:49;;;;;;;2.47;1.30;;;;;;;16.54;22.84;101830.47;5020965;28;20108;-58
2023/01/24 00:19:16;;;;;;;1.52;0.88;;;;;;;16.43;23.25;101833.91;5013038;28;20113;-59
2023/01/24 00:21:42;;;;;;;2.78;0.60;;;;;;;16.45;23.70;101831.84;5012741;28;20057;-58
2023/01/24 00:24:08;;;;;;;0.93;0.30;;;;;;;16.10;23.76;101836.84;5013015;28;20463;-58
2023/01/24 00:26:34;;;;;;;2.42;1.55;;;;;;;16.34;23.83;101837.94;5012789;28;20545;-58
2023/01/24 00:29:01;;;;;;;4.15;1.50;;;;;;;16.47;23.66;101837.81;5011353;28;20038;-58
2023/01/24 00:31:27;;;;;;;1.45;0.35;;;;;;;16.15;24.37;101836.22;5012263;28;20045;-58
2023/01/24 00:33:53;;;;;;;1.65;0.30;;;;;;;16.23;24.88;101839.47;5012295;28;20033;-58
2023/01/24 00:36:19;;;;;;;0.95;0.28;;;;;;;16.43;24.57;101842.00;5009103;28;20054;-58
2023/01/24 00:38:46;;;;;;;2.13;0.15;;;;;;;16.10;24.34;101835.00;5009788;28;20100;-58
2023/01/24 00:41:12;;;;;;;0.20;0.20;;;;;;;16.17;24.44;101839.53;5013043;28;20049;-57
2023/01/24 00:43:38;;;;;;;1.10;0.35;;;;;;;16.15;25.02;101838.91;5025557;28;20426;-58
2023/01/24 00:46:09;;;;;;;0.63;0.28;;;;;;;16.29;25.75;101844.00;5032045;28;20049;-57
2023/01/24 00:48:35;;;;;;;0.60;0.17;;;;;;;16.13;25.17;101841.84;5031992;28;20071;-57
2023/01/24 00:51:02;;;;;;;0.55;0.20;;;;;;;16.02;26.15;101834.44;5015982;28;20514;-58
2023/01/24 00:53:28;;;;;;;5.68;0.77;;;;;;;15.88;26.40;101836.41;5012545;28;20044;-58
2023/01/24 00:55:54;;;;;;;0.65;0.20;;;;;;;15.68;25.10;101831.09;5012323;28;20053;-60
2023/01/24 00:58:21;;;;;;;0.50;0.30;;;;;;;15.68;25.45;101838.38;5004907;28;20057;-58
2023/01/24 01:00:47;;;;;;;0.40;0.30;;;;;;;15.69;26.61;101838.16;5012072;28;20095;-58
2023/01/24 01:03:17;;;;;;;0.52;0.30;;;;;;;16.02;25.40;101834.44;5008614;28;20480;-58
2023/01/24 01:05:44;;;;;;;0.73;0.30;;;;;;;15.84;25.38;101833.28;4992796;28;20041;-58
2023/01/24 01:08:11;;;;;;;1.10;0.30;;;;;;;15.86;25.78;101833.06;4997315;28;20032;-56
2023/01/24 01:10:38;;;;;;;0.40;0.17;;;;;;;15.88;26.62;101840.94;5011650;28;20032;-59
2023/01/24 01:13:04;;;;;;;2.80;0.35;;;;;;;15.93;27.49;101847.34;5012070;28;20087;-59
2023/01/24 01:15:31;;;;;;;0.73;0.20;;;;;;;15.58;25.69;101847.72;5011849;28;20022;-59
2023/01/24 01:17:58;;;;;;;1.10;0.40;;;;;;;15.51;27.55;101848.81;5012063;28;20472;-59
2023/01/24 01:20:26;;;;;;;2.35;0.20;;;;;;;15.40;26.56;101852.16;5009514;28;20025;-60
2023/01/24 01:22:53;;;;;;;0.98;0.20;;;;;;;15.45;26.98;101855.88;5011941;28;20108;-60
2023/01/24 01:25:19;;;;;;;0.30;0.20;;;;;;;15.33;27.67;101854.91;5011999;28;20033;-60
2023/01/24 01:27:45;;;;;;;0.60;0.40;;;;;;;15.29;28.48;101854.47;5011529;28;20048;-61
2023/01/24 01:30:11;;;;;;;1.35;0.40;;;;;;;15.33;28.29;101860.28;5012111;28;20464;-60
2023/01/24 01:32:38;;;;;;;1.75;0.40;;;;;;;15.36;28.28;101862.53;5012244;28;20026;-60
2023/01/24 01:35:04;;;;;;;1.83;0.38;;;;;;;15.42;27.86;101859.00;5012148;28;20049;-60
2023/01/24 01:37:31;;;;;;;0.68;0.22;;;;;;;15.24;28.04;101856.16;5011840;28;20038;-60
2023/01/24 01:39:57;;;;;;;0.73;0.25;;;;;;;14.99;28.60;101859.53;5011727;28;20436;-60
2023/01/24 01:42:24;;;;;;;1.70;0.40;;;;;;;14.85;28.83;101855.19;5011878;28;20021;-60
2023/01/24 01:44:53;;;;;;;0.68;0.20;;;;;;;14.77;28.90;101863.53;5011365;28;20041;-59
2023/01/24 01:47:34;;;;;;;1.02;0.28;;;;;;;14.93;29.10;101863.06;5011751;28;20061;-59
2023/01/24 01:50:21;;;;;;;0.93;0.20;;;;;;;14.70;29.52;101862.66;5012009;28;20080;-59
2023/01/24 01:52:47;;;;;;;0.40;0.30;;;;;;;14.72;29.63;101866.00;5009921;28;20483;-58
2023/01/24 01:55:18;;;;;;;3.40;0.80;;;;;;;14.65;30.49;101867.84;5011253;28;20022;-56
2023/01/24 01:57:45;;;;;;;0.47;0.30;;;;;;;14.31;31.31;101876.94;5011038;28;20030;-54
2023/01/24 02:00:15;;;;;;;1.10;0.40;;;;;;;14.46;30.43;101875.72;5011470;28;20026;-53
2023/01/24 02:02:50;;;;;;;0.40;0.38;;;;;;;14.33;30.59;101878.41;5011551;28;20205;-53
2023/01/24 02:05:20;;;;;;;1.20;0.70;;;;;;;14.33;30.01;101881.09;5008748;28;20039;-64
2023/01/24 02:07:52;;;;;;;1.50;0.65;;;;;;;14.21;29.92;101888.09;5011452;28;20428;-63
2023/01/24 02:10:21;;;;;;;1.35;0.80;;;;;;;14.13;29.93;101888.28;5010914;28;20109;-64
2023/01/24 02:12:50;;;;;;;1.13;0.57;;;;;;;13.99;30.29;101893.66;5011201;28;20485;-64
2023/01/24 02:18:05;;;;;;;1.15;0.70;;;;;;;13.88;30.97;101904.16;5007093;28;20057;-63
2023/01/24 02:20:43;;;;;;;0.35;0.30;;;;;;;13.76;31.44;101909.28;5011099;28;20120;-63
2023/01/24 02:23:31;;;;;;;0.60;0.50;;;;;;;13.78;31.71;101909.94;5011929;28;20064;-64
2023/01/24 02:26:12;;;;;;;1.13;0.57;;;;;;;13.67;31.76;101913.19;5011329;28;20026;-65
2023/01/24 02:28:42;;;;;;;0.82;0.40;;;;;;;13.55;32.06;101912.09;5010633;28;20065;-65
2023/01/24 02:31:09;;;;;;;1.42;0.50;;;;;;;13.29;32.86;101916.31;5009149;28;20052;-65
2023/01/24 02:33:35;;;;;;;1.10;0.60;;;;;;;13.10;31.80;101912.44;5011324;28;20061;-65
2023/01/24 02:36:19;;;;;;;0.85;0.65;;;;;;;13.07;32.06;101918.19;5010748;28;20069;-64
2023/01/24 02:39:00;;;;;;;1.30;0.57;;;;;;;13.08;32.42;101913.66;5011454;28;20040;-65
2023/01/24 02:41:32;;;;;;;1.70;0.70;;;;;;;12.97;33.36;101922.25;5011456;28;20032;-65
2023/01/24 02:44:04;;;;;;;1.33;0.80;;;;;;;12.97;33.22;101933.84;5011936;28;20048;-65
2023/01/24 02:46:31;;;;;;;1.83;1.00;;;;;;;13.12;33.87;101942.63;5011367;28;20080;-65
2023/01/24 02:48:57;;;;;;;1.48;1.00;;;;;;;12.95;34.30;101939.41;5011716;28;20022;-64
2023/01/24 02:54:07;;;;;;;1.05;0.93;;;;;;;12.75;34.92;101946.47;5011510;28;20044;-64
2023/01/24 02:59:18;;;;;;;4.68;2.00;;;;;;;12.66;35.55;101947.66;5013191;28;20033;-64
2023/01/24 03:01:44;;;;;;;2.10;1.60;;;;;;;12.55;35.87;101948.16;5013871;28;20036;-64
2023/01/24 03:04:12;;;;;;;3.38;1.50;;;;;;;12.53;36.04;101952.88;5012314;28;20018;-64
2023/01/24 03:06:38;;;;;;;2.40;1.50;;;;;;;12.47;36.17;101959.84;4996547;28;20082;-64
2023/01/24 03:09:18;;;;;;;2.55;1.40;;;;;;;12.43;36.55;101963.91;5014366;28;20030;-64
2023/01/24 03:11:46;;;;;;;3.15;2.00;;;;;;;12.33;36.84;101971.47;5014412;28;20026;-61
2023/01/24 03:36:31;;;;;;;2.47;1.13;;;;;;;11.81;38.94;101993.91;5011730;28;20650;-64
2023/01/24 03:41:42;;;;;;;3.08;1.25;;;;;;;10.86;41.22;101994.53;5012657;28;20146;-63
2023/01/24 03:44:08;;;;;;;3.45;1.42;;;;;;;10.97;40.76;101994.09;5008312;28;20133;-64
2023/01/24 03:46:39;;;;;;;3.00;0.63;;;;;;;10.73;41.08;101996.97;5013374;28;20033;-64
2023/01/24 03:49:07;;;;;;;0.75;0.55;;;;;;;10.68;41.14;101991.31;5011747;28;20022;-63
2023/01/24 03:54:18;;;;;;;1.65;0.90;;;;;;;10.20;42.90;101996.75;5013055;28;20040;-64
2023/01/24 03:56:44;;;;;;;3.53;1.30;;;;;;;9.91;43.55;102005.41;5013374;28;20045;-64
2023/01/24 03:59:10;;;;;;;2.92;1.40;;;;;;;9.29;44.66;102013.25;5011775;28;20030;-63
2023/01/24 04:01:39;;;;;;;1.48;0.90;;;;;;;9.12;45.44;102014.28;5013223;28;20036;-63
2023/01/24 04:04:05;;;;;;;2.08;0.55;;;;;;;8.98;45.18;102015.78;5011510;28;20022;-63
2023/01/24 04:06:32;;;;;;;1.42;0.70;;;;;;;8.98;45.56;102027.28;5012334;28;20369;-63
2023/01/24 04:08:58;;;;;;;1.45;0.60;;;;;;;8.97;46.25;102027.47;5011603;28;20026;-63
2023/01/24 04:11:24;;;;;;;3.33;0.80;;;;;;;8.81;46.76;102028.28;5013330;28;20499;-63
2023/01/24 04:13:50;;;;;;;2.25;0.50;;;;;;;8.68;47.16;102033.28;5011994;28;20042;-62
2023/01/24 04:16:17;;;;;;;1.15;0.60;;;;;;;8.40;47.60;102028.22;5011090;28;20026;-61
2023/01/24 04:18:44;;;;;;;1.27;0.70;;;;;;;8.42;47.31;102036.88;5012796;28;20026;-61
2023/01/24 04:21:10;;;;;;;1.80;0.73;;;;;;;8.39;47.12;102041.72;5013030;28;20030;-61
2023/01/24 04:23:37;;;;;;;2.55;0.50;;;;;;;8.45;46.77;102038.41;5012860;28;20037;-61
2023/01/24 04:26:04;;;;;;;0.50;0.43;;;;;;;8.30;46.74;102035.47;5011163;28;20022;-61
2023/01/24 04:28:31;;;;;;;0.60;0.50;;;;;;;8.31;47.30;102041.66;5011620;28;20476;-61
2023/01/24 04:31:02;;;;;;;1.95;0.43;;;;;;;8.41;46.74;102034.38;5012959;28;20060;-61
2023/01/24 04:33:28;;;;;;;1.00;0.70;;;;;;;8.44;46.40;102036.72;5010768;28;20026;-61
2023/01/24 04:35:59;;;;;;;0.98;0.70;;;;;;;8.54;46.19;102034.72;5012336;28;20060;-61
2023/01/24 04:38:25;;;;;;;0.60;0.60;;;;;;;8.48;46.79;102031.88;4991696;28;20026;-61
2023/01/24 04:41:13;;;;;;;2.05;0.90;;;;;;;8.36;47.26;102036.69;4992290;28;20026;-62
2023/01/24 04:43:40;;;;;;;1.88;0.93;;;;;;;8.34;46.94;102044.00;4993025;28;20127;-62
2023/01/24 04:46:07;;;;;;;2.97;0.90;;;;;;;8.39;46.74;102041.72;5006696;28;20507;-62
2023/01/24 04:48:33;;;;;;;1.65;1.20;;;;;;;8.37;46.82;102039.19;5012798;28;20025;-62
2023/01/24 04:51:00;;;;;;;2.45;1.10;;;;;;;8.49;47.06;102039.72;5010392;28;20036;-62
2023/01/24 04:53:29;;;;;;;2.05;0.90;;;;;;;8.31;47.50;102052.31;5018602;28;20075;-62
2023/01/24 04:56:03;;;;;;;3.05;1.33;;;;;;;8.04;48.11;102048.03;5011168;28;20140;-62
2023/01/24 04:58:29;;;;;;;3.70;1.63;;;;;;;8.07;48.76;102059.22;5010758;28;20072;-62
2023/01/24 05:00:55;;;;;;;2.35;1.23;;;;;;;8.15;48.88;102056.59;5012196;28;20049;-62
2023/01/24 05:03:21;;;;;;;3.15;1.02;;;;;;;8.07;48.88;102056.56;5010232;28;20483;-62
2023/01/24 05:05:52;;;;;;;3.28;1.20;;;;;;;8.04;49.10;102061.38;5010809;28;20113;-62
2023/01/24 05:08:18;;;;;;;2.63;1.25;;;;;;;8.04;48.82;102064.03;5012150;28;20037;-62
2023/01/24 05:10:44;;;;;;;2.47;1.70;;;;;;;7.83;49.31;102067.13;5010835;28;20017;-62
2023/01/24 05:13:11;;;;;;;1.73;1.10;;;;;;;8.00;49.02;102068.03;5012014;28;20117;-61
2023/01/24 05:15:37;;;;;;;2.15;0.80;;;;;;;7.98;49.14;102075.34;5009810;28;20496;-62
2023/01/24 05:18:04;;;;;;;2.10;0.80;;;;;;;8.17;48.24;102081.28;5003724;28;20033;-61
2023/01/24 05:20:30;;;;;;;1.00;0.80;;;;;;;8.25;48.01;102076.97;5010490;28;20427;-61
2023/01/24 05:22:58;;;;;;;1.98;0.77;;;;;;;7.89;48.83;102072.63;5011893;28;20534;-62
2023/01/24 05:25:24;;;;;;;1.58;0.80;;;;;;;7.87;49.11;102084.44;5011390;28;20104;-62
2023/01/24 05:27:51;;;;;;;4.45;1.30;;;;;;;7.99;48.92;102091.16;5011922;28;20072;-62
2023/01/24 05:30:17;;;;;;;1.92;0.85;;;;;;;8.18;48.28;102098.94;5011663;28;20105;-63
2023/01/24 05:32:43;;;;;;;2.40;0.50;;;;;;;8.19;48.67;102092.63;5011673;28;20097;-62
2023/01/24 05:35:09;;;;;;;1.38;0.68;;;;;;;8.03;48.64;102097.84;5011591;28;20179;-63
2023/01/24 05:37:40;;;;;;;1.20;0.55;;;;;;;7.93;48.99;102102.47;5011666;28;20049;-62
2023/01/24 05:40:07;;;;;;;1.48;0.70;;;;;;;7.98;48.94;102094.00;5011445;28;20543;-62
2023/01/24 05:42:33;;;;;;;1.63;0.60;;;;;;;7.51;50.21;102099.69;5011821;28;20026;-62
2023/01/24 05:44:59;;;;;;;4.43;0.70;;;;;;;7.57;49.83;102105.25;5011144;28;20041;-62
2023/01/24 05:47:26;;;;;;;0.88;0.57;;;;;;;7.81;49.41;102101.91;5011501;28;20139;-61
2023/01/24 05:49:52;;;;;;;1.38;0.55;;;;;;;7.91;49.35;102099.13;5011635;28;20034;-63
2023/01/24 05:52:21;;;;;;;2.03;1.00;;;;;;;7.63;49.92;102107.28;5011601;28;20026;-62
2023/01/24 05:54:48;;;;;;;3.80;0.80;;;;;;;7.44;50.82;102103.94;5028764;28;20033;-62
2023/01/24 05:57:15;;;;;;;1.90;0.77;;;;;;;7.21;51.43;102099.09;5024226;28;20029;-61
2023/01/24 05:59:42;;;;;;;1.83;1.05;;;;;;;7.28;51.40;102120.66;5011428;28;20030;-62
2023/01/24 06:02:08;;;;;;;2.17;0.98;;;;;;;7.47;50.68;102116.97;5011329;28;20112;-62
2023/01/24 06:04:34;;;;;;;1.33;0.70;;;;;;;7.59;50.43;102121.06;5011277;28;20034;-62
2023/01/24 06:07:01;;;;;;;2.67;0.93;;;;;;;7.70;50.34;102134.13;5011425;28;20472;-62
2023/01/24 06:09:27;;;;;;;2.20;1.08;;;;;;;7.53;50.76;102130.50;5011518;28;20038;-62
2023/01/24 06:11:53;;;;;;;2.20;1.00;;;;;;;7.48;51.07;102138.13;5011662;28;20096;-62
2023/01/24 06:14:20;;;;;;;1.77;1.02;;;;;;;7.78;50.00;102128.06;5010799;28;20554;-62
2023/01/24 06:16:47;;;;;;;1.30;0.90;;;;;;;7.38;50.47;102135.56;5011270;28;20044;-62
2023/01/24 06:19:14;;;;;;;1.55;0.85;;;;;;;7.56;50.82;102140.88;5011556;28;20120;-62
2023/01/24 06:22:04;;;;;;;1.77;0.90;;;;;;;7.55;50.16;102143.66;5011325;28;20034;-62
2023/01/24 06:24:31;;;;;;;1.50;1.00;;;;;;;7.45;50.77;102145.59;5011487;28;20033;-62
2023/01/24 06:26:57;;;;;;;2.42;1.00;;;;;;;7.00;51.66;102149.19;5011163;28;20101;-62
2023/01/24 06:29:24;;;;;;;2.53;1.10;;;;;;;7.11;51.51;102143.63;5011458;28;20080;-62
2023/01/24 06:32:11;;;;;;;2.88;0.93;;;;;;;6.86;52.51;102155.84;5015081;28;20030;-62
2023/01/24 06:34:55;;;;;;;1.55;0.82;;;;;;;7.02;52.58;102157.84;5014849;28;20042;-62
2023/01/24 06:37:36;;;;;;;3.55;1.13;;;;;;;6.46;53.54;102154.38;5014921;28;20113;-62
2023/01/24 06:40:08;;;;;;;2.20;0.98;;;;;;;6.42;54.39;102168.09;5003097;28;20397;-62
2023/01/24 06:42:35;;;;;;;1.77;0.82;;;;;;;6.73;53.39;102172.16;4996279;28;20022;-62
2023/01/24 06:45:01;;;;;;;2.05;0.57;;;;;;;6.89;52.69;102176.84;5002485;28;20072;-62
2023/01/24 06:47:27;;;;;;;1.63;0.40;;;;;;;7.11;52.22;102179.09;5011913;28;20080;-62
2023/01/24 06:49:54;;;;;;;3.85;0.93;;;;;;;6.63;53.14;102186.50;5008543;28;20100;-62
2023/01/24 06:52:21;;;;;;;1.67;0.93;;;;;;;6.26;54.00;102184.66;4995902;28;20098;-62
2023/01/24 06:54:47;;;;;;;3.63;1.90;;;;;;;6.39;54.08;102187.03;5024245;28;20053;-62
2023/01/24 06:57:13;;;;;;;3.35;2.03;;;;;;;6.49;53.66;102196.63;5014338;28;20115;-62
2023/01/24 06:59:39;;;;;;;2.45;1.88;;;;;;;6.58;53.73;102201.06;5032055;23;20059;-62
2023/01/24 07:02:05;;;;;;;4.72;2.10;;;;;;;6.65;53.66;102206.63;5034374;28;20108;-61
2023/01/24 07:04:32;;;;;;;3.88;2.17;;;;;;;6.68;53.51;102213.50;5034165;28;20087;-61
2023/01/24 07:06:58;;;;;;;1.90;1.40;;;;;;;6.80;53.14;102215.81;5034111;28;20032;-62
2023/01/24 07:09:24;;;;;;;3.70;1.75;;;;;;;6.78;53.00;102212.47;5034171;28;20034;-61
2023/01/24 07:11:56;;;;;;;1.45;1.30;;;;;;;6.72;53.41;102223.72;5033626;28;20027;-62
2023/01/24 07:14:22;;;;;;;2.90;1.40;;;;;;;6.44;53.80;102225.50;5034060;28;20040;-61
2023/01/24 07:16:50;;;;;;;2.22;1.33;;;;;;;6.33;54.70;102221.19;5033739;28;20064;-61
2023/01/24 07:19:21;;;;;;;3.05;1.23;;;;;;;6.48;54.08;102226.88;5033912;28;20025;-61
2023/01/24 07:21:47;;;;;;;6.40;1.23;;;;;;;6.74;53.56;102240.34;5033695;28;20029;-61
2023/01/24 07:24:22;;;;;;;1.30;0.85;;;;;;;6.76;53.00;102248.19;5016270;28;20087;-61
2023/01/24 07:26:50;;;;;;;3.95;0.90;;;;;;;6.64;52.21;102249.34;5033856;28;20456;-61
2023/01/24 07:29:20;;;;;;;1.42;0.82;;;;;;;6.56;52.74;102248.28;5033737;28;20033;-61
2023/01/24 07:31:50;;;;;;;2.38;1.30;;;;;;;6.73;52.38;102243.19;5033715;28;20406;-61
2023/01/24 07:34:17;;;;;;;3.45;1.10;;;;;;;6.47;52.72;102256.28;5033772;28;20044;-61
2023/01/24 07:36:45;;;;;;;1.92;0.75;;;;;;;6.31;53.54;102254.22;5033281;28;20032;-61
2023/01/24 07:39:11;;;;;;;2.47;0.85;;;;;;;6.64;52.63;102249.34;5033417;28;20064;-61
2023/01/24 07:41:40;;;;;;;0.70;0.55;;;;;;;6.84;52.28;102251.81;5032650;28;20030;-61
2023/01/24 07:44:06;;;;;;;0.63;0.40;;;;;;;6.81;51.67;102246.75;5033593;28;20483;-61
2023/01/24 07:46:33;;;;;;;1.30;0.60;;;;;;;6.85;51.71;102239.34;5033033;28;20075;-61
2023/01/24 07:49:00;;;;;;;2.80;0.50;;;;;;;6.96;51.24;102239.13;5026320;28;20025;-61
2023/01/24 07:51:27;;;;;;;2.67;0.70;;;;;;;7.15;51.15;102239.00;5021791;28;20021;-61
2023/01/24 07:53:54;;;;;;;1.90;0.60;;;;;;;7.12;51.04;102249.97;5032858;28;20087;-61
2023/01/24 07:56:20;;;;;;;1.00;0.63;;;;;;;7.17;50.58;102254.88;5032133;28;20082;-62
2023/01/24 07:58:46;;;;;;;1.60;0.55;;;;;;;7.32;50.54;102255.19;5016546;28;20145;-61
2023/01/24 08:01:17;;;;;;;0.70;0.50;;;;;;;7.13;50.92;102256.97;5033219;28;20030;-62
2023/01/24 08:03:43;;;;;;;1.33;0.70;;;;;;;7.02;51.74;102267.81;5030595;28;20026;-62
2023/01/24 08:06:09;;;;;;;1.05;0.60;;;;;;;6.70;52.84;102272.72;5031307;28;20487;-61
2023/01/24 08:08:36;;;;;;;2.25;0.80;;;;;;;6.78;52.82;102272.84;5031533;28;20079;-61
2023/01/24 08:11:02;;;;;;;0.77;0.68;;;;;;;6.68;53.14;102272.03;5031451;28;20033;-60
2023/01/24 08:13:28;;;;;;;1.58;0.90;;;;;;;6.76;52.91;102278.28;5031191;28;20029;-61
2023/01/24 08:15:54;;;;;;;0.70;0.70;;;;;;;6.86;52.66;102276.44;5029888;28;20388;-62
2023/01/24 08:18:20;;;;;;;1.25;0.82;;;;;;;6.87;52.24;102285.25;5033089;28;20063;-62
2023/01/24 08:20:48;;;;;;;1.45;0.65;;;;;;;6.98;52.69;102278.91;5031098;28;20064;-62
2023/01/24 08:23:14;;;;;;;1.52;0.70;;;;;;;7.00;52.92;102277.78;5031091;28;20041;-62
2023/01/24 08:25:41;;;;;;;1.42;0.80;;;;;;;7.07;52.29;102286.03;5029489;28;20029;-63
2023/01/24 08:28:07;;;;;;;1.40;0.80;;;;;;;6.98;52.50;102285.06;5031090;28;20033;-63
2023/01/24 08:30:33;;;;;;;2.63;0.75;;;;;;;7.06;52.85;102281.69;5029699;28;20021;-62
2023/01/24 08:33:04;;;;;;;2.50;0.90;;;;;;;6.83;53.69;102281.25;5014289;28;20029;-62
2023/01/24 08:35:31;;;;;;;1.90;0.90;;;;;;;6.72;53.91;102281.38;5030699;28;20079;-62
2023/01/24 08:37:58;;;;;;;1.10;0.90;;;;;;;6.59;54.62;102277.22;5027019;28;20053;-62
2023/01/24 08:40:25;;;;;;;1.13;0.68;;;;;;;6.46;54.70;102276.72;5032252;28;20029;-62
2023/01/24 08:42:51;;;;;;;0.80;0.60;;;;;;;6.65;53.05;102272.31;5030467;28;20036;-62
2023/01/24 08:45:17;;;;;;;2.88;1.13;;;;;;;6.59;52.58;102273.72;5032360;28;20032;-62
2023/01/24 08:47:44;;;;;;;1.35;0.55;;;;;;;6.66;50.47;102271.31;5030779;28;20109;-62
2023/01/24 08:50:10;;;;;;;2.25;0.60;;;;;;;7.37;48.14;102274.22;5030842;28;20033;-62
2023/01/24 08:52:37;;;;;;;1.42;0.60;;;;;;;7.74;46.39;102273.25;5030533;28;20108;-62
2023/01/24 08:55:03;;;;;;;0.57;0.50;;;;;;;7.93;46.33;102276.59;5027306;28;20036;-62
2023/01/24 08:57:29;;;;;;;3.50;0.35;;;;;;;8.23;45.59;102279.84;5030715;28;20110;-62
2023/01/24 08:59:56;;;;;;;0.60;0.45;;;;;;;8.34;44.95;102270.75;5030433;28;20041;-62
2023/01/24 09:02:22;;;;;;;0.80;0.57;;;;;;;8.57;44.68;102279.94;5030473;28;20369;-62
2023/01/24 09:04:49;;;;;;;0.95;0.60;;;;;;;8.90;43.31;102266.78;5029902;28;20033;-62
2023/01/24 09:07:15;;;;;;;0.60;0.55;;;;;;;9.04;42.71;102270.66;5029708;28;20506;-62
2023/01/24 09:09:41;;;;;;;1.00;0.40;;;;;;;9.15;42.69;102255.16;5030402;28;20033;-62
2023/01/24 09:12:07;;;;;;;0.65;0.50;;;;;;;9.20;42.75;102266.22;5026297;28;20025;-63
2023/01/24 09:14:34;;;;;;;0.50;0.35;;;;;;;9.40;42.03;102266.78;5030351;28;20114;-62
2023/01/24 09:17:00;;;;;;;0.70;0.50;;;;;;;9.34;42.46;102261.25;5031542;28;20026;-62
2023/01/24 09:19:26;;;;;;;1.70;0.40;;;;;;;9.37;41.71;102261.75;5032050;28;20033;-63
2023/01/24 09:21:56;;;;;;;0.45;0.45;;;;;;;9.31;42.00;102261.56;5029737;28;20025;-63
2023/01/24 09:24:23;;;;;;;1.40;0.70;;;;;;;9.45;41.44;102271.63;5031722;28;20055;-63
2023/01/24 09:26:50;;;;;;;0.88;0.70;;;;;;;9.58;41.46;102274.66;5031437;28;20041;-63
2023/01/24 09:29:16;;;;;;;1.08;0.50;;;;;;;9.64;40.94;102276.69;5031791;28;20422;-63
2023/01/24 09:31:43;;;;;;;1.20;0.55;;;;;;;9.55;40.96;102275.00;5031734;28;20034;-63
2023/01/24 09:34:09;;;;;;;0.93;0.70;;;;;;;9.61;41.55;102276.19;5031667;28;20040;-63
2023/01/24 09:36:35;;;;;;;4.03;0.75;;;;;;;9.52;39.88;102280.66;5031366;28;20022;-63
2023/01/24 09:39:01;;;;;;;0.88;0.57;;;;;;;9.57;39.99;102267.66;5031394;28;20033;-63
2023/01/24 09:41:54;;;;;;;1.20;0.63;;;;;;;9.59;40.63;102273.66;5031658;28;20037;-63
2023/01/24 09:44:40;;;;;;;0.63;0.55;;;;;;;9.75;39.83;102273.69;5031664;28;20179;-63
2023/01/24 09:47:23;;;;;;;1.05;0.50;;;;;;;9.78;40.03;102272.53;4981262;28;20135;-63
2023/01/24 09:50:01;;;;;;;1.00;0.60;;;;;;;9.80;39.99;102283.88;5031810;28;20030;-63
2023/01/24 09:52:38;;;;;;;0.88;0.75;;;;;;;9.87;39.78;102286.72;5031228;28;20029;-63
2023/01/24 09:55:29;;;;;;;0.80;0.60;;;;;;;9.69;40.20;102289.56;5016965;28;20175;-63
2023/01/24 09:57:59;;;;;;;3.85;1.05;;;;;;;9.73;40.48;102289.06;5031122;28;20434;-63
2023/01/24 10:00:29;;;;;;;1.27;0.93;;;;;;;9.83;40.44;102296.09;5031100;28;20084;-63
2023/01/24 10:02:59;;;;;;;1.63;1.00;;;;;;;9.86;40.13;102287.75;5028914;28;20034;-63
2023/01/24 10:05:38;;;;;;;1.30;1.10;;;;;;;9.94;40.02;102290.44;5020634;28;20026;-63
2023/01/24 10:08:29;;;;;;;2.47;1.02;;;;;;;10.10;39.22;102295.75;5016432;28;20384;-63
2023/01/24 10:11:20;;;;;;;2.13;1.17;;;;;;;10.18;39.05;102298.47;5020709;28;20030;-63
2023/01/24 10:13:50;;;;;;;1.45;1.10;;;;;;;10.18;39.33;102294.94;5033415;28;20474;-63
2023/01/24 10:16:19;;;;;;;3.25;1.40;;;;;;;10.23;38.92;102296.16;5034992;28;20037;-63
2023/01/24 10:19:22;;;;;;;3.35;1.67;;;;;;;10.27;39.50;102304.66;5035125;28;20099;-64
2023/01/24 10:22:22;;;;;;;2.90;1.58;;;;;;;10.31;39.59;102308.69;5033596;28;20036;-64
2023/01/24 10:25:00;;;;;;;3.15;1.63;;;;;;;10.08;39.99;102307.66;5032949;28;20033;-64
2023/01/24 10:27:31;;;;;;;2.05;1.40;;;;;;;10.28;39.51;102309.03;5035177;28;20484;-64
2023/01/24 10:30:01;;;;;;;3.13;1.60;;;;;;;10.26;40.02;102317.19;5034639;28;20395;-64
2023/01/24 10:32:32;;;;;;;2.13;1.70;;;;;;;10.36;39.74;102316.19;5034621;28;20022;-64
2023/01/24 10:35:20;;;;;;;3.85;1.65;;;;;;;10.48;39.15;102326.38;5034680;28;20029;-63
2023/01/24 10:37:55;;;;;;;2.45;1.80;;;;;;;10.53;39.31;102328.56;5034984;28;20028;-63
2023/01/24 10:40:24;;;;;;;2.75;1.80;;;;;;;10.44;39.11;102329.59;5034976;28;20443;-63
2023/01/24 10:42:51;;;;;;;3.00;1.60;;;;;;;10.49;39.42;102337.94;5017870;28;20120;-64
2023/01/24 10:45:40;;;;;;;3.92;1.58;;;;;;;10.41;39.90;102337.94;5014880;28;20460;-64
2023/01/24 10:48:18;;;;;;;4.22;2.08;;;;;;;10.50;39.88;102340.47;4995289;28;20045;-64
2023/01/24 10:50:45;;;;;;;1.90;1.60;;;;;;;10.54;40.00;102336.41;5034746;28;20025;-64
2023/01/24 10:53:14;;;;;;;2.50;1.48;;;;;;;10.39;40.18;102340.81;5029741;28;20126;-64
2023/01/24 10:55:40;;;;;;;3.22;1.90;;;;;;;10.52;40.37;102337.59;5014200;28;20040;-64
2023/01/24 10:58:22;;;;;;;3.90;2.10;;;;;;;10.35;41.07;102341.31;5024757;28;20029;-64
2023/01/24 11:00:56;;;;;;;5.53;2.10;;;;;;;10.41;40.78;102329.91;5034331;28;20050;-64
2023/01/24 11:03:29;;;;;;;3.80;2.05;;;;;;;10.50;40.56;102336.94;5034088;28;20052;-63
2023/01/24 11:05:57;;;;;;;2.58;1.75;;;;;;;10.45;40.50;102337.44;5033933;28;20052;-64
2023/01/24 11:08:26;;;;;;;3.70;1.90;;;;;;;10.45;41.11;102340.13;5034151;28;20034;-64
2023/01/24 11:10:55;;;;;;;3.13;2.38;;;;;;;10.26;41.23;102343.13;5034200;28;20112;-64
2023/01/24 11:13:34;;;;;;;3.08;1.77;;;;;;;10.25;41.89;102347.66;5033844;28;20030;-64
2023/01/24 11:16:22;;;;;;;4.53;1.85;;;;;;;10.22;41.99;102352.47;5033511;28;20036;-64
2023/01/24 11:18:55;;;;;;;4.45;2.28;;;;;;;10.11;42.55;102350.97;5033225;28;20017;-64
2023/01/24 11:21:21;;;;;;;3.83;2.60;;;;;;;10.32;42.14;102343.28;5033776;28;20044;-64
2023/01/24 11:24:13;;;;;;;2.55;1.63;;;;;;;10.11;42.61;102353.66;5034144;28;20061;-64
2023/01/24 11:26:56;;;;;;;4.50;2.15;;;;;;;9.99;43.29;102352.28;5031697;28;20033;-64
2023/01/24 11:29:23;;;;;;;3.35;2.25;;;;;;;10.03;43.02;102359.81;5017983;28;20125;-65
2023/01/24 11:31:55;;;;;;;3.75;2.47;;;;;;;10.03;43.28;102356.28;5030631;28;20126;-64
2023/01/24 11:34:53;;;;;;;2.60;2.30;;;;;;;9.81;43.64;102355.09;5029445;28;20033;-64
2023/01/24 11:37:38;;;;;;;3.33;2.47;;;;;;;9.86;43.59;102351.94;5024809;28;20048;-63
2023/01/24 11:40:07;;;;;;;3.55;2.55;;;;;;;9.77;43.87;102351.06;5033552;28;20040;-64
2023/01/24 11:42:59;;;;;;;3.90;2.60;;;;;;;9.79;44.12;102341.88;5033791;28;20093;-64
2023/01/24 11:46:02;;;;;;;3.28;2.13;;;;;;;9.87;43.78;102342.91;5033051;28;20029;-63
2023/01/24 11:48:53;;;;;;;3.17;2.35;;;;;;;9.76;43.66;102342.19;5034013;28;20072;-64
2023/01/24 11:52:09;;;;;;;2.95;2.38;;;;;;;9.95;43.23;102340.25;5034008;28;20132;-64
2023/01/24 11:54:49;;;;;;;2.97;2.15;;;;;;;9.81;43.28;102331.03;4984767;28;20037;-65
2023/01/24 11:57:15;;;;;;;2.70;1.90;;;;;;;9.89;43.43;102333.72;5033621;28;20030;-63
2023/01/24 11:59:51;;;;;;;3.53;2.03;;;;;;;9.90;43.22;102334.56;5033260;28;20059;-64
2023/01/24 12:02:47;;;;;;;4.00;1.50;;;;;;;10.02;42.43;102331.38;5033621;28;20033;-63
2023/01/24 12:05:52;;;;;;;2.72;1.80;;;;;;;10.06;42.33;102329.22;5033029;28;20052;-63
2023/01/24 12:08:50;;;;;;;2.42;1.63;;;;;;;10.05;42.17;102335.59;5019162;28;20044;-63
2023/01/24 12:11:28;;;;;;;2.40;1.75;;;;;;;10.14;42.44;102339.91;5032736;28;20036;-63
2023/01/24 12:14:15;;;;;;;2.90;1.90;;;;;;;10.07;42.10;102348.78;5033020;28;20037;-64
2023/01/24 12:17:02;;;;;;;3.95;1.85;;;;;;;10.00;41.99;102338.75;5033048;28;20048;-63
2023/01/24 12:19:37;;;;;;;2.72;1.88;;;;;;;10.12;41.86;102344.63;5033044;28;20021;-65
2023/01/24 12:22:19;;;;;;;2.42;2.05;;;;;;;10.04;41.96;102342.75;5033022;28;20395;-63